sensor_id;sensor_type;location;lat;lon;timestamp;temperature;humidity
360;DHT22;168;48.872;9.226;2024-02-28T00:01:00;9.30;95.80
360;DHT22;168;48.872;9.226;2024-02-28T00:03:28;9.20;96.00
360;DHT22;168;48.872;9.226;2024-02-28T00:06:03;9.20;96.10
360;DHT22;168;48.872;9.226;2024-02-28T00:08:45;9.20;95.40
360;DHT22;168;48.872;9.226;2024-02-28T00:11:23;9.10;95.70
360;DHT22;168;48.872;9.226;2024-02-28T00:13:54;9.10;96.00
360;DHT22;168;48.872;9.226;2024-02-28T00:16:23;9.10;95.90
360;DHT22;168;48.872;9.226;2024-02-28T00:18:51;9.20;95.40
360;DHT22;168;48.872;9.226;2024-02-28T00:21:19;9.10;95.50
360;DHT22;168;48.872;9.226;2024-02-28T00:23:48;9.20;95.00
360;DHT22;168;48.872;9.226;2024-02-28T00:26:15;9.30;94.60
360;DHT22;168;48.872;9.226;2024-02-28T00:28:43;9.30;94.40
360;DHT22;168;48.872;9.226;2024-02-28T00:31:10;9.30;94.30
360;DHT22;168;48.872;9.226;2024-02-28T00:33:38;9.30;94.30
360;DHT22;168;48.872;9.226;2024-02-28T00:36:05;9.20;94.20
360;DHT22;168;48.872;9.226;2024-02-28T00:38:33;9.30;93.90
360;DHT22;168;48.872;9.226;2024-02-28T00:41:02;9.30;94.00
360;DHT22;168;48.872;9.226;2024-02-28T00:43:29;9.40;94.00
360;DHT22;168;48.872;9.226;2024-02-28T00:45:57;9.30;94.40
360;DHT22;168;48.872;9.226;2024-02-28T00:48:25;9.30;93.60
360;DHT22;168;48.872;9.226;2024-02-28T00:50:55;9.30;93.80
360;DHT22;168;48.872;9.226;2024-02-28T00:53:23;9.20;93.80
360;DHT22;168;48.872;9.226;2024-02-28T00:55:50;9.20;94.20
360;DHT22;168;48.872;9.226;2024-02-28T00:58:20;9.20;94.50
360;DHT22;168;48.872;9.226;2024-02-28T01:00:48;9.10;94.80
360;DHT22;168;48.872;9.226;2024-02-28T01:03:15;9.20;94.70
360;DHT22;168;48.872;9.226;2024-02-28T01:05:44;9.20;94.50
360;DHT22;168;48.872;9.226;2024-02-28T01:08:12;9.20;94.30
360;DHT22;168;48.872;9.226;2024-02-28T01:10:39;9.10;94.30
360;DHT22;168;48.872;9.226;2024-02-28T01:13:07;9.10;94.40
360;DHT22;168;48.872;9.226;2024-02-28T01:15:36;9.10;94.60
360;DHT22;168;48.872;9.226;2024-02-28T01:18:04;9.10;94.30
360;DHT22;168;48.872;9.226;2024-02-28T01:20:31;9.10;94.30
360;DHT22;168;48.872;9.226;2024-02-28T01:22:59;9.10;94.60
360;DHT22;168;48.872;9.226;2024-02-28T01:25:26;9.10;94.50
360;DHT22;168;48.872;9.226;2024-02-28T01:27:55;9.00;94.80
360;DHT22;168;48.872;9.226;2024-02-28T01:30:24;9.00;95.00
360;DHT22;168;48.872;9.226;2024-02-28T01:32:52;9.00;95.00
360;DHT22;168;48.872;9.226;2024-02-28T01:35:20;8.90;95.10
360;DHT22;168;48.872;9.226;2024-02-28T01:37:48;8.90;95.00
360;DHT22;168;48.872;9.226;2024-02-28T01:40:16;8.80;94.90
360;DHT22;168;48.872;9.226;2024-02-28T01:42:44;8.80;95.10
360;DHT22;168;48.872;9.226;2024-02-28T01:45:14;8.70;95.20
360;DHT22;168;48.872;9.226;2024-02-28T01:47:41;8.70;95.30
360;DHT22;168;48.872;9.226;2024-02-28T01:50:11;8.70;95.20
360;DHT22;168;48.872;9.226;2024-02-28T01:52:39;8.80;95.20
360;DHT22;168;48.872;9.226;2024-02-28T01:55:08;8.80;95.10
360;DHT22;168;48.872;9.226;2024-02-28T01:57:37;8.80;94.90
360;DHT22;168;48.872;9.226;2024-02-28T02:00:06;9.00;94.90
360;DHT22;168;48.872;9.226;2024-02-28T02:02:34;9.10;94.00
360;DHT22;168;48.872;9.226;2024-02-28T02:05:02;9.10;93.80
360;DHT22;168;48.872;9.226;2024-02-28T02:07:31;9.10;94.20
360;DHT22;168;48.872;9.226;2024-02-28T02:09:59;9.10;94.30
360;DHT22;168;48.872;9.226;2024-02-28T02:12:26;9.30;93.40
360;DHT22;168;48.872;9.226;2024-02-28T02:14:54;9.20;93.40
360;DHT22;168;48.872;9.226;2024-02-28T02:17:21;9.20;93.40
360;DHT22;168;48.872;9.226;2024-02-28T02:19:49;9.20;93.80
360;DHT22;168;48.872;9.226;2024-02-28T02:22:17;9.30;93.30
360;DHT22;168;48.872;9.226;2024-02-28T02:24:47;9.20;93.40
360;DHT22;168;48.872;9.226;2024-02-28T02:27:14;9.30;93.40
360;DHT22;168;48.872;9.226;2024-02-28T02:29:42;9.30;93.50
360;DHT22;168;48.872;9.226;2024-02-28T02:32:09;9.20;93.50
360;DHT22;168;48.872;9.226;2024-02-28T02:34:37;9.10;93.80
360;DHT22;168;48.872;9.226;2024-02-28T02:37:04;9.10;94.20
360;DHT22;168;48.872;9.226;2024-02-28T02:39:34;9.10;94.00
360;DHT22;168;48.872;9.226;2024-02-28T02:42:04;9.10;94.40
360;DHT22;168;48.872;9.226;2024-02-28T02:44:31;9.10;94.30
360;DHT22;168;48.872;9.226;2024-02-28T02:46:59;9.10;94.30
360;DHT22;168;48.872;9.226;2024-02-28T02:49:28;9.10;94.30
360;DHT22;168;48.872;9.226;2024-02-28T02:51:56;9.10;94.40
360;DHT22;168;48.872;9.226;2024-02-28T02:54:23;9.00;94.70
360;DHT22;168;48.872;9.226;2024-02-28T02:56:50;8.90;94.90
360;DHT22;168;48.872;9.226;2024-02-28T02:59:19;8.90;95.00
360;DHT22;168;48.872;9.226;2024-02-28T03:01:49;8.90;94.80
360;DHT22;168;48.872;9.226;2024-02-28T03:04:16;8.80;95.00
360;DHT22;168;48.872;9.226;2024-02-28T03:06:44;8.80;95.10
360;DHT22;168;48.872;9.226;2024-02-28T03:09:11;8.70;95.60
360;DHT22;168;48.872;9.226;2024-02-28T03:11:39;8.60;95.80
360;DHT22;168;48.872;9.226;2024-02-28T03:14:06;8.50;96.10
360;DHT22;168;48.872;9.226;2024-02-28T03:16:40;8.50;96.20
360;DHT22;168;48.872;9.226;2024-02-28T03:19:07;8.50;96.30
360;DHT22;168;48.872;9.226;2024-02-28T03:21:35;8.60;96.20
360;DHT22;168;48.872;9.226;2024-02-28T03:24:03;8.60;96.20
360;DHT22;168;48.872;9.226;2024-02-28T03:26:30;8.60;96.30
360;DHT22;168;48.872;9.226;2024-02-28T03:28:58;8.60;96.10
360;DHT22;168;48.872;9.226;2024-02-28T03:31:26;8.60;96.10
360;DHT22;168;48.872;9.226;2024-02-28T03:33:55;8.60;96.20
360;DHT22;168;48.872;9.226;2024-02-28T03:36:22;8.60;96.20
360;DHT22;168;48.872;9.226;2024-02-28T03:38:50;8.50;96.40
360;DHT22;168;48.872;9.226;2024-02-28T03:41:17;8.60;96.50
360;DHT22;168;48.872;9.226;2024-02-28T03:43:44;8.50;96.40
360;DHT22;168;48.872;9.226;2024-02-28T03:46:12;8.50;96.60
360;DHT22;168;48.872;9.226;2024-02-28T03:48:40;8.60;96.70
360;DHT22;168;48.872;9.226;2024-02-28T03:51:08;8.50;96.60
360;DHT22;168;48.872;9.226;2024-02-28T03:53:36;8.60;96.50
360;DHT22;168;48.872;9.226;2024-02-28T03:56:04;8.80;96.10
360;DHT22;168;48.872;9.226;2024-02-28T03:58:31;8.80;95.60
360;DHT22;168;48.872;9.226;2024-02-28T04:00:59;8.80;95.70
360;DHT22;168;48.872;9.226;2024-02-28T04:03:26;8.80;95.50
360;DHT22;168;48.872;9.226;2024-02-28T04:05:53;8.70;96.10
360;DHT22;168;48.872;9.226;2024-02-28T04:08:22;8.80;95.90
360;DHT22;168;48.872;9.226;2024-02-28T04:10:49;8.80;95.50
360;DHT22;168;48.872;9.226;2024-02-28T04:13:17;8.60;95.90
360;DHT22;168;48.872;9.226;2024-02-28T04:15:44;8.50;96.40
360;DHT22;168;48.872;9.226;2024-02-28T04:18:12;8.70;96.10
360;DHT22;168;48.872;9.226;2024-02-28T04:20:40;8.70;96.20
360;DHT22;168;48.872;9.226;2024-02-28T04:23:07;8.60;96.40
360;DHT22;168;48.872;9.226;2024-02-28T04:25:36;8.40;96.90
360;DHT22;168;48.872;9.226;2024-02-28T04:28:06;8.30;97.00
360;DHT22;168;48.872;9.226;2024-02-28T04:30:34;8.30;97.20
360;DHT22;168;48.872;9.226;2024-02-28T04:33:02;8.20;97.00
360;DHT22;168;48.872;9.226;2024-02-28T04:35:29;8.20;97.10
360;DHT22;168;48.872;9.226;2024-02-28T04:37:57;8.20;96.90
360;DHT22;168;48.872;9.226;2024-02-28T04:40:24;8.20;97.00
360;DHT22;168;48.872;9.226;2024-02-28T04:42:53;8.30;96.90
360;DHT22;168;48.872;9.226;2024-02-28T04:45:21;8.40;96.60
360;DHT22;168;48.872;9.226;2024-02-28T04:47:48;8.30;96.60
360;DHT22;168;48.872;9.226;2024-02-28T04:50:17;8.10;97.10
360;DHT22;168;48.872;9.226;2024-02-28T04:52:45;8.00;97.20
360;DHT22;168;48.872;9.226;2024-02-28T04:55:13;7.90;97.60
360;DHT22;168;48.872;9.226;2024-02-28T04:57:41;7.90;97.60
360;DHT22;168;48.872;9.226;2024-02-28T05:00:10;7.90;97.60
360;DHT22;168;48.872;9.226;2024-02-28T05:02:38;7.90;97.60
360;DHT22;168;48.872;9.226;2024-02-28T05:05:06;7.80;97.60
360;DHT22;168;48.872;9.226;2024-02-28T05:07:33;7.90;97.70
360;DHT22;168;48.872;9.226;2024-02-28T05:10:01;7.90;97.70
360;DHT22;168;48.872;9.226;2024-02-28T05:12:28;8.00;97.50
360;DHT22;168;48.872;9.226;2024-02-28T05:14:56;8.20;96.80
360;DHT22;168;48.872;9.226;2024-02-28T05:17:24;8.20;96.80
360;DHT22;168;48.872;9.226;2024-02-28T05:19:52;8.10;97.00
360;DHT22;168;48.872;9.226;2024-02-28T05:22:29;7.90;97.50
360;DHT22;168;48.872;9.226;2024-02-28T05:24:57;8.00;97.40
360;DHT22;168;48.872;9.226;2024-02-28T05:27:47;7.90;97.40
360;DHT22;168;48.872;9.226;2024-02-28T05:30:17;7.90;97.60
360;DHT22;168;48.872;9.226;2024-02-28T05:32:49;8.00;97.50
360;DHT22;168;48.872;9.226;2024-02-28T05:35:19;8.10;97.00
360;DHT22;168;48.872;9.226;2024-02-28T05:38:00;8.10;97.00
360;DHT22;168;48.872;9.226;2024-02-28T05:40:29;8.00;96.80
360;DHT22;168;48.872;9.226;2024-02-28T05:42:57;7.90;97.50
360;DHT22;168;48.872;9.226;2024-02-28T05:45:25;7.90;97.40
360;DHT22;168;48.872;9.226;2024-02-28T05:47:56;8.10;97.20
360;DHT22;168;48.872;9.226;2024-02-28T05:50:26;8.10;96.60
360;DHT22;168;48.872;9.226;2024-02-28T05:52:55;8.00;97.00
360;DHT22;168;48.872;9.226;2024-02-28T05:55:23;8.00;96.90
360;DHT22;168;48.872;9.226;2024-02-28T05:57:52;8.00;97.00
360;DHT22;168;48.872;9.226;2024-02-28T06:00:23;8.00;97.20
360;DHT22;168;48.872;9.226;2024-02-28T06:02:51;8.10;97.30
360;DHT22;168;48.872;9.226;2024-02-28T06:05:20;7.90;97.40
360;DHT22;168;48.872;9.226;2024-02-28T06:07:48;8.10;97.20
360;DHT22;168;48.872;9.226;2024-02-28T06:10:17;8.10;97.20
360;DHT22;168;48.872;9.226;2024-02-28T06:12:44;7.90;97.50
360;DHT22;168;48.872;9.226;2024-02-28T06:15:12;7.90;97.70
360;DHT22;168;48.872;9.226;2024-02-28T06:17:42;8.00;97.40
360;DHT22;168;48.872;9.226;2024-02-28T06:20:10;8.10;97.40
360;DHT22;168;48.872;9.226;2024-02-28T06:22:39;8.10;97.10
360;DHT22;168;48.872;9.226;2024-02-28T06:25:07;8.10;97.10
360;DHT22;168;48.872;9.226;2024-02-28T06:27:44;7.90;97.30
360;DHT22;168;48.872;9.226;2024-02-28T06:30:11;7.80;97.70
360;DHT22;168;48.872;9.226;2024-02-28T06:32:39;7.70;97.70
360;DHT22;168;48.872;9.226;2024-02-28T06:35:38;7.80;97.80
360;DHT22;168;48.872;9.226;2024-02-28T06:38:31;7.90;97.70
360;DHT22;168;48.872;9.226;2024-02-28T06:41:09;8.00;97.60
360;DHT22;168;48.872;9.226;2024-02-28T06:43:37;8.10;97.30
360;DHT22;168;48.872;9.226;2024-02-28T06:46:04;8.20;97.00
360;DHT22;168;48.872;9.226;2024-02-28T06:48:32;8.10;96.80
360;DHT22;168;48.872;9.226;2024-02-28T06:50:59;8.00;97.00
360;DHT22;168;48.872;9.226;2024-02-28T06:53:26;8.20;96.60
360;DHT22;168;48.872;9.226;2024-02-28T06:55:55;8.00;97.00
360;DHT22;168;48.872;9.226;2024-02-28T06:58:22;8.10;96.70
360;DHT22;168;48.872;9.226;2024-02-28T07:00:51;7.90;97.20
360;DHT22;168;48.872;9.226;2024-02-28T07:03:18;8.10;96.80
360;DHT22;168;48.872;9.226;2024-02-28T07:05:45;8.10;96.80
360;DHT22;168;48.872;9.226;2024-02-28T07:08:13;8.00;97.00
360;DHT22;168;48.872;9.226;2024-02-28T07:10:40;8.00;96.90
360;DHT22;168;48.872;9.226;2024-02-28T07:13:10;8.00;97.30
360;DHT22;168;48.872;9.226;2024-02-28T07:15:38;8.30;96.90
360;DHT22;168;48.872;9.226;2024-02-28T07:18:06;8.40;96.00
360;DHT22;168;48.872;9.226;2024-02-28T07:20:33;8.40;95.70
360;DHT22;168;48.872;9.226;2024-02-28T07:23:00;8.30;95.90
360;DHT22;168;48.872;9.226;2024-02-28T07:25:28;8.20;96.20
360;DHT22;168;48.872;9.226;2024-02-28T07:27:57;8.10;96.60
360;DHT22;168;48.872;9.226;2024-02-28T07:30:26;7.90;96.80
360;DHT22;168;48.872;9.226;2024-02-28T07:32:53;7.90;97.50
360;DHT22;168;48.872;9.226;2024-02-28T07:35:21;8.00;97.30
360;DHT22;168;48.872;9.226;2024-02-28T07:37:50;8.10;97.00
360;DHT22;168;48.872;9.226;2024-02-28T07:40:17;8.00;97.50
360;DHT22;168;48.872;9.226;2024-02-28T07:42:44;8.10;97.40
360;DHT22;168;48.872;9.226;2024-02-28T07:45:12;8.30;96.90
360;DHT22;168;48.872;9.226;2024-02-28T07:47:40;8.40;96.50
360;DHT22;168;48.872;9.226;2024-02-28T07:50:08;8.50;96.30
360;DHT22;168;48.872;9.226;2024-02-28T07:52:35;8.60;95.80
360;DHT22;168;48.872;9.226;2024-02-28T07:55:04;8.70;95.40
360;DHT22;168;48.872;9.226;2024-02-28T07:57:31;8.80;94.70
360;DHT22;168;48.872;9.226;2024-02-28T07:59:59;8.70;95.10
360;DHT22;168;48.872;9.226;2024-02-28T08:02:27;8.70;94.80
360;DHT22;168;48.872;9.226;2024-02-28T08:04:56;8.60;95.00
360;DHT22;168;48.872;9.226;2024-02-28T08:07:23;8.50;95.50
360;DHT22;168;48.872;9.226;2024-02-28T08:09:50;8.30;96.30
360;DHT22;168;48.872;9.226;2024-02-28T08:12:18;8.30;96.50
360;DHT22;168;48.872;9.226;2024-02-28T08:14:45;8.50;96.00
360;DHT22;168;48.872;9.226;2024-02-28T08:17:12;8.80;94.80
360;DHT22;168;48.872;9.226;2024-02-28T08:19:41;8.60;95.10
360;DHT22;168;48.872;9.226;2024-02-28T08:22:10;8.50;95.50
360;DHT22;168;48.872;9.226;2024-02-28T08:24:37;8.40;95.80
360;DHT22;168;48.872;9.226;2024-02-28T08:27:05;8.50;95.50
360;DHT22;168;48.872;9.226;2024-02-28T08:29:32;8.60;95.60
360;DHT22;168;48.872;9.226;2024-02-28T08:32:01;8.60;95.40
360;DHT22;168;48.872;9.226;2024-02-28T08:34:29;8.40;95.90
360;DHT22;168;48.872;9.226;2024-02-28T08:36:57;8.40;96.40
360;DHT22;168;48.872;9.226;2024-02-28T08:39:26;8.60;95.40
360;DHT22;168;48.872;9.226;2024-02-28T08:41:53;8.50;95.30
360;DHT22;168;48.872;9.226;2024-02-28T08:44:20;8.30;96.10
360;DHT22;168;48.872;9.226;2024-02-28T08:46:48;8.20;96.50
360;DHT22;168;48.872;9.226;2024-02-28T08:49:17;8.20;96.60
360;DHT22;168;48.872;9.226;2024-02-28T08:51:44;8.10;96.80
360;DHT22;168;48.872;9.226;2024-02-28T08:54:11;8.10;96.80
360;DHT22;168;48.872;9.226;2024-02-28T08:56:40;8.00;97.20
360;DHT22;168;48.872;9.226;2024-02-28T08:59:07;8.00;97.40
360;DHT22;168;48.872;9.226;2024-02-28T09:01:34;8.00;97.20
360;DHT22;168;48.872;9.226;2024-02-28T09:04:03;8.00;97.20
360;DHT22;168;48.872;9.226;2024-02-28T09:06:30;8.10;96.90
360;DHT22;168;48.872;9.226;2024-02-28T09:08:58;8.20;96.90
360;DHT22;168;48.872;9.226;2024-02-28T09:11:25;8.30;96.20
360;DHT22;168;48.872;9.226;2024-02-28T09:13:54;8.30;95.80
360;DHT22;168;48.872;9.226;2024-02-28T09:16:21;8.30;96.20
360;DHT22;168;48.872;9.226;2024-02-28T09:18:48;8.20;96.60
360;DHT22;168;48.872;9.226;2024-02-28T09:21:16;8.20;96.40
360;DHT22;168;48.872;9.226;2024-02-28T09:23:43;8.30;96.60
360;DHT22;168;48.872;9.226;2024-02-28T09:26:10;8.50;96.10
360;DHT22;168;48.872;9.226;2024-02-28T09:28:38;8.50;95.80
360;DHT22;168;48.872;9.226;2024-02-28T09:31:07;8.60;95.50
360;DHT22;168;48.872;9.226;2024-02-28T09:33:35;8.70;95.30
360;DHT22;168;48.872;9.226;2024-02-28T09:36:02;8.70;95.30
360;DHT22;168;48.872;9.226;2024-02-28T09:38:30;8.60;95.50
360;DHT22;168;48.872;9.226;2024-02-28T09:40:58;8.60;95.40
360;DHT22;168;48.872;9.226;2024-02-28T09:43:29;8.60;95.00
360;DHT22;168;48.872;9.226;2024-02-28T09:45:59;8.60;94.80
360;DHT22;168;48.872;9.226;2024-02-28T09:48:29;8.70;94.20
360;DHT22;168;48.872;9.226;2024-02-28T09:50:57;8.70;94.70
360;DHT22;168;48.872;9.226;2024-02-28T09:53:24;8.70;94.70
360;DHT22;168;48.872;9.226;2024-02-28T09:55:52;8.80;94.40
360;DHT22;168;48.872;9.226;2024-02-28T09:58:20;9.20;93.00
360;DHT22;168;48.872;9.226;2024-02-28T10:00:49;9.20;93.10
360;DHT22;168;48.872;9.226;2024-02-28T10:03:18;9.30;92.50
360;DHT22;168;48.872;9.226;2024-02-28T10:05:48;9.40;91.70
360;DHT22;168;48.872;9.226;2024-02-28T10:08:15;9.40;92.10
360;DHT22;168;48.872;9.226;2024-02-28T10:10:45;9.50;91.60
360;DHT22;168;48.872;9.226;2024-02-28T10:13:13;9.60;91.60
360;DHT22;168;48.872;9.226;2024-02-28T10:15:41;9.60;92.30
360;DHT22;168;48.872;9.226;2024-02-28T10:18:08;9.80;90.80
360;DHT22;168;48.872;9.226;2024-02-28T10:20:35;9.80;90.30
360;DHT22;168;48.872;9.226;2024-02-28T10:23:05;9.90;89.10
360;DHT22;168;48.872;9.226;2024-02-28T10:25:42;9.90;89.20
360;DHT22;168;48.872;9.226;2024-02-28T10:28:10;9.80;89.50
360;DHT22;168;48.872;9.226;2024-02-28T10:30:39;9.70;89.30
360;DHT22;168;48.872;9.226;2024-02-28T10:33:10;9.60;90.20
360;DHT22;168;48.872;9.226;2024-02-28T10:35:39;9.50;90.40
360;DHT22;168;48.872;9.226;2024-02-28T10:38:10;9.50;90.50
360;DHT22;168;48.872;9.226;2024-02-28T10:40:38;9.50;91.20
360;DHT22;168;48.872;9.226;2024-02-28T10:43:08;9.60;90.60
360;DHT22;168;48.872;9.226;2024-02-28T10:45:36;9.80;89.80
360;DHT22;168;48.872;9.226;2024-02-28T10:48:05;9.90;89.70
360;DHT22;168;48.872;9.226;2024-02-28T10:50:33;10.00;89.10
360;DHT22;168;48.872;9.226;2024-02-28T10:53:01;10.10;88.40
360;DHT22;168;48.872;9.226;2024-02-28T10:55:34;10.10;88.20
360;DHT22;168;48.872;9.226;2024-02-28T10:58:03;10.20;88.40
360;DHT22;168;48.872;9.226;2024-02-28T11:00:34;10.30;88.40
360;DHT22;168;48.872;9.226;2024-02-28T11:03:02;10.30;88.10
360;DHT22;168;48.872;9.226;2024-02-28T11:05:36;10.40;87.80
360;DHT22;168;48.872;9.226;2024-02-28T11:08:05;10.40;87.80
360;DHT22;168;48.872;9.226;2024-02-28T11:10:40;10.50;86.90
360;DHT22;168;48.872;9.226;2024-02-28T11:13:08;10.60;87.40
360;DHT22;168;48.872;9.226;2024-02-28T11:15:36;10.70;87.30
360;DHT22;168;48.872;9.226;2024-02-28T11:18:07;10.70;86.50
360;DHT22;168;48.872;9.226;2024-02-28T11:20:35;10.80;86.40
360;DHT22;168;48.872;9.226;2024-02-28T11:23:03;10.80;86.00
360;DHT22;168;48.872;9.226;2024-02-28T11:25:32;10.90;85.90
360;DHT22;168;48.872;9.226;2024-02-28T11:28:01;10.90;85.50
360;DHT22;168;48.872;9.226;2024-02-28T11:30:29;10.90;84.50
360;DHT22;168;48.872;9.226;2024-02-28T11:32:57;11.00;84.40
360;DHT22;168;48.872;9.226;2024-02-28T11:35:25;10.90;85.00
360;DHT22;168;48.872;9.226;2024-02-28T11:37:54;10.80;85.10
360;DHT22;168;48.872;9.226;2024-02-28T11:40:23;10.70;86.00
360;DHT22;168;48.872;9.226;2024-02-28T11:42:51;10.60;86.10
360;DHT22;168;48.872;9.226;2024-02-28T11:45:20;10.60;85.40
360;DHT22;168;48.872;9.226;2024-02-28T11:47:48;10.50;86.10
360;DHT22;168;48.872;9.226;2024-02-28T11:50:15;10.30;86.90
360;DHT22;168;48.872;9.226;2024-02-28T11:52:44;9.80;88.10
360;DHT22;168;48.872;9.226;2024-02-28T11:55:12;9.40;90.10
360;DHT22;168;48.872;9.226;2024-02-28T11:57:39;9.10;91.30
360;DHT22;168;48.872;9.226;2024-02-28T12:00:08;9.20;91.40
360;DHT22;168;48.872;9.226;2024-02-28T12:02:40;9.30;90.90
360;DHT22;168;48.872;9.226;2024-02-28T12:05:08;9.60;90.60
360;DHT22;168;48.872;9.226;2024-02-28T12:07:36;9.70;89.40
360;DHT22;168;48.872;9.226;2024-02-28T12:10:05;9.80;88.90
360;DHT22;168;48.872;9.226;2024-02-28T12:12:34;9.50;89.50
360;DHT22;168;48.872;9.226;2024-02-28T12:15:02;9.40;90.40
360;DHT22;168;48.872;9.226;2024-02-28T12:17:31;9.60;89.60
360;DHT22;168;48.872;9.226;2024-02-28T12:20:00;9.50;89.80
360;DHT22;168;48.872;9.226;2024-02-28T12:22:27;9.50;90.00
360;DHT22;168;48.872;9.226;2024-02-28T12:24:55;9.60;89.60
360;DHT22;168;48.872;9.226;2024-02-28T12:27:22;9.60;89.90
360;DHT22;168;48.872;9.226;2024-02-28T12:29:49;9.80;89.20
360;DHT22;168;48.872;9.226;2024-02-28T12:32:17;9.90;88.30
360;DHT22;168;48.872;9.226;2024-02-28T12:34:44;9.90;88.30
360;DHT22;168;48.872;9.226;2024-02-28T12:37:13;9.90;88.70
360;DHT22;168;48.872;9.226;2024-02-28T12:39:40;9.80;89.40
360;DHT22;168;48.872;9.226;2024-02-28T12:42:07;9.90;88.80
360;DHT22;168;48.872;9.226;2024-02-28T12:44:35;10.00;88.20
360;DHT22;168;48.872;9.226;2024-02-28T12:47:03;9.90;88.50
360;DHT22;168;48.872;9.226;2024-02-28T12:49:30;9.70;89.00
360;DHT22;168;48.872;9.226;2024-02-28T12:51:58;9.40;90.00
360;DHT22;168;48.872;9.226;2024-02-28T12:54:26;9.20;90.80
360;DHT22;168;48.872;9.226;2024-02-28T12:56:54;9.20;91.10
360;DHT22;168;48.872;9.226;2024-02-28T12:59:21;9.10;91.10
360;DHT22;168;48.872;9.226;2024-02-28T13:01:49;9.10;91.40
360;DHT22;168;48.872;9.226;2024-02-28T13:04:16;9.00;91.60
360;DHT22;168;48.872;9.226;2024-02-28T13:06:43;9.00;92.40
360;DHT22;168;48.872;9.226;2024-02-28T13:09:10;9.20;91.70
360;DHT22;168;48.872;9.226;2024-02-28T13:11:40;9.30;91.00
360;DHT22;168;48.872;9.226;2024-02-28T13:14:07;9.50;90.50
360;DHT22;168;48.872;9.226;2024-02-28T13:16:36;9.40;90.60
360;DHT22;168;48.872;9.226;2024-02-28T13:19:04;9.50;90.70
360;DHT22;168;48.872;9.226;2024-02-28T13:21:31;9.50;90.40
360;DHT22;168;48.872;9.226;2024-02-28T13:24:00;9.60;90.10
360;DHT22;168;48.872;9.226;2024-02-28T13:26:28;9.60;89.80
360;DHT22;168;48.872;9.226;2024-02-28T13:28:56;9.60;90.10
360;DHT22;168;48.872;9.226;2024-02-28T13:31:24;9.80;89.70
360;DHT22;168;48.872;9.226;2024-02-28T13:33:51;10.00;88.70
360;DHT22;168;48.872;9.226;2024-02-28T13:36:19;10.00;87.50
360;DHT22;168;48.872;9.226;2024-02-28T13:38:46;9.70;88.30
360;DHT22;168;48.872;9.226;2024-02-28T13:41:13;9.50;88.80
360;DHT22;168;48.872;9.226;2024-02-28T13:43:42;9.30;89.50
360;DHT22;168;48.872;9.226;2024-02-28T13:46:11;9.20;90.70
360;DHT22;168;48.872;9.226;2024-02-28T13:48:40;9.30;89.90
360;DHT22;168;48.872;9.226;2024-02-28T13:51:07;9.40;90.00
360;DHT22;168;48.872;9.226;2024-02-28T13:53:34;9.50;89.60
360;DHT22;168;48.872;9.226;2024-02-28T13:56:02;9.60;89.20
360;DHT22;168;48.872;9.226;2024-02-28T13:58:29;9.80;88.90
360;DHT22;168;48.872;9.226;2024-02-28T14:00:57;10.10;87.90
360;DHT22;168;48.872;9.226;2024-02-28T14:03:25;10.40;86.40
360;DHT22;168;48.872;9.226;2024-02-28T14:05:53;10.60;85.30
360;DHT22;168;48.872;9.226;2024-02-28T14:08:20;10.70;84.70
360;DHT22;168;48.872;9.226;2024-02-28T14:10:47;10.70;84.60
360;DHT22;168;48.872;9.226;2024-02-28T14:13:15;10.80;84.90
360;DHT22;168;48.872;9.226;2024-02-28T14:15:44;11.10;82.90
360;DHT22;168;48.872;9.226;2024-02-28T14:18:12;11.10;82.80
360;DHT22;168;48.872;9.226;2024-02-28T14:20:41;11.00;82.80
360;DHT22;168;48.872;9.226;2024-02-28T14:23:09;10.80;83.40
360;DHT22;168;48.872;9.226;2024-02-28T14:25:36;10.90;83.40
360;DHT22;168;48.872;9.226;2024-02-28T14:28:04;10.90;82.70
360;DHT22;168;48.872;9.226;2024-02-28T14:30:31;10.90;82.40
360;DHT22;168;48.872;9.226;2024-02-28T14:32:59;10.80;83.10
360;DHT22;168;48.872;9.226;2024-02-28T14:35:27;10.80;84.60
360;DHT22;168;48.872;9.226;2024-02-28T14:37:55;10.80;84.30
360;DHT22;168;48.872;9.226;2024-02-28T14:40:23;10.90;83.30
360;DHT22;168;48.872;9.226;2024-02-28T14:42:52;11.00;84.00
360;DHT22;168;48.872;9.226;2024-02-28T14:45:19;11.10;83.90
360;DHT22;168;48.872;9.226;2024-02-28T14:47:46;11.10;84.10
360;DHT22;168;48.872;9.226;2024-02-28T14:50:14;11.20;83.70
360;DHT22;168;48.872;9.226;2024-02-28T14:52:41;11.30;82.70
360;DHT22;168;48.872;9.226;2024-02-28T14:55:10;11.40;81.90
360;DHT22;168;48.872;9.226;2024-02-28T14:57:38;11.40;81.20
360;DHT22;168;48.872;9.226;2024-02-28T15:00:07;11.40;80.90
360;DHT22;168;48.872;9.226;2024-02-28T15:02:39;11.40;81.20
360;DHT22;168;48.872;9.226;2024-02-28T15:05:07;11.40;81.20
360;DHT22;168;48.872;9.226;2024-02-28T15:07:35;11.40;81.00
360;DHT22;168;48.872;9.226;2024-02-28T15:10:03;11.40;80.90
360;DHT22;168;48.872;9.226;2024-02-28T15:12:33;11.40;80.80
360;DHT22;168;48.872;9.226;2024-02-28T15:15:01;11.30;81.40
360;DHT22;168;48.872;9.226;2024-02-28T15:17:29;11.10;82.00
360;DHT22;168;48.872;9.226;2024-02-28T15:19:56;11.10;82.80
360;DHT22;168;48.872;9.226;2024-02-28T15:22:23;11.00;84.00
360;DHT22;168;48.872;9.226;2024-02-28T15:24:51;11.00;84.40
360;DHT22;168;48.872;9.226;2024-02-28T15:27:18;10.90;84.60
360;DHT22;168;48.872;9.226;2024-02-28T15:29:47;10.90;84.90
360;DHT22;168;48.872;9.226;2024-02-28T15:32:14;11.00;84.30
360;DHT22;168;48.872;9.226;2024-02-28T15:34:42;11.00;84.40
360;DHT22;168;48.872;9.226;2024-02-28T15:37:09;11.00;84.30
360;DHT22;168;48.872;9.226;2024-02-28T15:39:36;11.10;84.40
360;DHT22;168;48.872;9.226;2024-02-28T15:42:03;11.10;84.40
360;DHT22;168;48.872;9.226;2024-02-28T15:44:31;11.10;84.30
360;DHT22;168;48.872;9.226;2024-02-28T15:47:01;11.10;84.10
360;DHT22;168;48.872;9.226;2024-02-28T15:49:28;11.20;82.90
360;DHT22;168;48.872;9.226;2024-02-28T15:51:55;11.20;82.80
360;DHT22;168;48.872;9.226;2024-02-28T15:54:23;11.10;82.40
360;DHT22;168;48.872;9.226;2024-02-28T15:56:50;11.10;82.70
360;DHT22;168;48.872;9.226;2024-02-28T15:59:18;11.10;83.40
360;DHT22;168;48.872;9.226;2024-02-28T16:01:45;11.10;83.70
360;DHT22;168;48.872;9.226;2024-02-28T16:04:14;11.10;83.90
360;DHT22;168;48.872;9.226;2024-02-28T16:06:41;11.10;84.40
360;DHT22;168;48.872;9.226;2024-02-28T16:09:08;11.10;84.10
360;DHT22;168;48.872;9.226;2024-02-28T16:11:36;11.10;83.80
360;DHT22;168;48.872;9.226;2024-02-28T16:14:03;11.10;83.90
360;DHT22;168;48.872;9.226;2024-02-28T16:16:30;11.10;83.10
360;DHT22;168;48.872;9.226;2024-02-28T16:18:58;11.10;83.30
360;DHT22;168;48.872;9.226;2024-02-28T16:21:27;11.00;83.70
360;DHT22;168;48.872;9.226;2024-02-28T16:23:54;11.00;82.70
360;DHT22;168;48.872;9.226;2024-02-28T16:26:21;11.00;82.80
360;DHT22;168;48.872;9.226;2024-02-28T16:28:49;10.90;83.00
360;DHT22;168;48.872;9.226;2024-02-28T16:31:16;10.90;83.40
360;DHT22;168;48.872;9.226;2024-02-28T16:33:43;10.80;84.00
360;DHT22;168;48.872;9.226;2024-02-28T16:36:11;10.70;84.00
360;DHT22;168;48.872;9.226;2024-02-28T16:38:40;10.70;84.10
360;DHT22;168;48.872;9.226;2024-02-28T16:41:08;10.70;84.50
360;DHT22;168;48.872;9.226;2024-02-28T16:43:35;10.60;85.10
360;DHT22;168;48.872;9.226;2024-02-28T16:46:03;10.50;85.30
360;DHT22;168;48.872;9.226;2024-02-28T16:48:31;10.40;85.40
360;DHT22;168;48.872;9.226;2024-02-28T16:50:58;10.40;85.40
360;DHT22;168;48.872;9.226;2024-02-28T16:53:27;10.40;85.90